sensor_id;sensor_type;location;lat;lon;timestamp;P1;durP1;ratioP1;P2;durP2;ratioP2
48241;SDS011;34041;51.812;4.622;2022-12-10T00:00:53;33.73;;;23.43;;
48241;SDS011;34041;51.812;4.622;2022-12-10T00:03:53;36.58;;;26.13;;
48241;SDS011;34041;51.812;4.622;2022-12-10T00:06:53;33.20;;;23.05;;
48241;SDS011;34041;51.812;4.622;2022-12-10T00:09:54;34.60;;;24.58;;
48241;SDS011;34041;51.812;4.622;2022-12-10T00:12:54;34.00;;;24.40;;
48241;SDS011;34041;51.812;4.622;2022-12-10T00:15:54;37.33;;;24.87;;
48241;SDS011;34041;51.812;4.622;2022-12-10T00:18:54;38.37;;;25.63;;
48241;SDS011;34041;51.812;4.622;2022-12-10T00:21:55;36.47;;;25.13;;
48241;SDS011;34041;51.812;4.622;2022-12-10T00:24:55;37.10;;;24.37;;
48241;SDS011;34041;51.812;4.622;2022-12-10T00:27:55;34.00;;;25.50;;
48241;SDS011;34041;51.812;4.622;2022-12-10T00:30:55;36.03;;;25.53;;
48241;SDS011;34041;51.812;4.622;2022-12-10T00:33:56;31.93;;;23.70;;
48241;SDS011;34041;51.812;4.622;2022-12-10T00:36:57;38.38;;;25.90;;
48241;SDS011;34041;51.812;4.622;2022-12-10T00:39:57;37.43;;;26.20;;
48241;SDS011;34041;51.812;4.622;2022-12-10T00:42:57;36.20;;;26.37;;
48241;SDS011;34041;51.812;4.622;2022-12-10T00:45:57;36.85;;;25.35;;
48241;SDS011;34041;51.812;4.622;2022-12-10T00:48:58;39.53;;;26.17;;
48241;SDS011;34041;51.812;4.622;2022-12-10T00:51:59;33.10;;;24.42;;
48241;SDS011;34041;51.812;4.622;2022-12-10T00:54:59;38.83;;;26.87;;
48241;SDS011;34041;51.812;4.622;2022-12-10T00:57:59;34.63;;;25.43;;
48241;SDS011;34041;51.812;4.622;2022-12-10T01:02:00;40.60;;;28.50;;
48241;SDS011;34041;51.812;4.622;2022-12-10T01:04:30;39.78;;;28.13;;
48241;SDS011;34041;51.812;4.622;2022-12-10T01:07:30;42.72;;;29.00;;
48241;SDS011;34041;51.812;4.622;2022-12-10T01:10:30;40.00;;;27.60;;
48241;SDS011;34041;51.812;4.622;2022-12-10T01:13:30;40.72;;;28.33;;
48241;SDS011;34041;51.812;4.622;2022-12-10T01:16:30;39.23;;;28.23;;
48241;SDS011;34041;51.812;4.622;2022-12-10T01:19:31;39.40;;;27.57;;
48241;SDS011;34041;51.812;4.622;2022-12-10T01:22:32;40.95;;;29.60;;
48241;SDS011;34041;51.812;4.622;2022-12-10T01:25:32;39.87;;;28.47;;
48241;SDS011;34041;51.812;4.622;2022-12-10T01:28:33;38.95;;;27.13;;
48241;SDS011;34041;51.812;4.622;2022-12-10T01:31:35;40.28;;;28.75;;
48241;SDS011;34041;51.812;4.622;2022-12-10T01:34:36;40.67;;;28.77;;
48241;SDS011;34041;51.812;4.622;2022-12-10T01:37:36;38.67;;;27.80;;
48241;SDS011;34041;51.812;4.622;2022-12-10T01:40:37;40.33;;;27.77;;
48241;SDS011;34041;51.812;4.622;2022-12-10T01:47:07;37.90;;;26.50;;
48241;SDS011;34041;51.812;4.622;2022-12-10T01:50:07;40.78;;;27.77;;
48241;SDS011;34041;51.812;4.622;2022-12-10T01:53:08;40.90;;;28.70;;
48241;SDS011;34041;51.812;4.622;2022-12-10T01:56:09;38.42;;;28.27;;
48241;SDS011;34041;51.812;4.622;2022-12-10T01:59:10;34.78;;;25.67;;
48241;SDS011;34041;51.812;4.622;2022-12-10T02:05:37;33.85;;;25.75;;
48241;SDS011;34041;51.812;4.622;2022-12-10T02:08:41;36.63;;;26.63;;
48241;SDS011;34041;51.812;4.622;2022-12-10T02:11:46;39.05;;;27.25;;
48241;SDS011;34041;51.812;4.622;2022-12-10T02:14:57;38.90;;;27.85;;
48241;SDS011;34041;51.812;4.622;2022-12-10T02:21:08;36.13;;;26.60;;
48241;SDS011;34041;51.812;4.622;2022-12-10T02:24:12;35.72;;;26.52;;
48241;SDS011;34041;51.812;4.622;2022-12-10T02:27:16;37.20;;;27.77;;
48241;SDS011;34041;51.812;4.622;2022-12-10T02:30:18;38.17;;;27.15;;
48241;SDS011;34041;51.812;4.622;2022-12-10T02:33:19;39.67;;;28.40;;
48241;SDS011;34041;51.812;4.622;2022-12-10T02:36:20;37.17;;;26.45;;
48241;SDS011;34041;51.812;4.622;2022-12-10T02:39:24;32.85;;;25.48;;
48241;SDS011;34041;51.812;4.622;2022-12-10T02:42:25;34.60;;;25.02;;
48241;SDS011;34041;51.812;4.622;2022-12-10T02:45:27;36.42;;;25.00;;
48241;SDS011;34041;51.812;4.622;2022-12-10T02:48:28;32.42;;;24.80;;
48241;SDS011;34041;51.812;4.622;2022-12-10T02:51:28;32.90;;;24.80;;
48241;SDS011;34041;51.812;4.622;2022-12-10T03:00:38;34.40;;;25.40;;
48241;SDS011;34041;51.812;4.622;2022-12-10T03:06:42;31.02;;;23.58;;
48241;SDS011;34041;51.812;4.622;2022-12-10T03:09:47;32.85;;;25.98;;
48241;SDS011;34041;51.812;4.622;2022-12-10T03:12:50;33.45;;;23.73;;
48241;SDS011;34041;51.812;4.622;2022-12-10T03:15:51;33.08;;;25.08;;
48241;SDS011;34041;51.812;4.622;2022-12-10T03:18:55;31.88;;;25.27;;
48241;SDS011;34041;51.812;4.622;2022-12-10T03:21:56;29.98;;;23.02;;
48241;SDS011;34041;51.812;4.622;2022-12-10T03:24:58;29.73;;;22.42;;
48241;SDS011;34041;51.812;4.622;2022-12-10T03:27:59;31.77;;;23.48;;
48241;SDS011;34041;51.812;4.622;2022-12-10T03:31:00;30.35;;;21.92;;
48241;SDS011;34041;51.812;4.622;2022-12-10T03:34:01;30.58;;;23.67;;
48241;SDS011;34041;51.812;4.622;2022-12-10T03:37:02;31.85;;;23.65;;
48241;SDS011;34041;51.812;4.622;2022-12-10T03:40:03;29.80;;;21.77;;
48241;SDS011;34041;51.812;4.622;2022-12-10T03:43:04;28.92;;;20.58;;
48241;SDS011;34041;51.812;4.622;2022-12-10T03:46:04;29.42;;;22.42;;
48241;SDS011;34041;51.812;4.622;2022-12-10T03:49:05;27.57;;;20.77;;
48241;SDS011;34041;51.812;4.622;2022-12-10T03:52:05;29.52;;;22.65;;
48241;SDS011;34041;51.812;4.622;2022-12-10T03:55:05;29.08;;;21.33;;
48241;SDS011;34041;51.812;4.622;2022-12-10T03:58:06;29.90;;;22.33;;
48241;SDS011;34041;51.812;4.622;2022-12-10T04:01:07;27.83;;;21.70;;
48241;SDS011;34041;51.812;4.622;2022-12-10T04:04:07;24.13;;;18.98;;
48241;SDS011;34041;51.812;4.622;2022-12-10T04:07:07;27.85;;;20.63;;
48241;SDS011;34041;51.812;4.622;2022-12-10T04:10:08;26.50;;;22.05;;
48241;SDS011;34041;51.812;4.622;2022-12-10T04:13:08;25.33;;;19.15;;
48241;SDS011;34041;51.812;4.622;2022-12-10T04:16:28;26.67;;;19.23;;
48241;SDS011;34041;51.812;4.622;2022-12-10T04:19:28;26.00;;;20.10;;
48241;SDS011;34041;51.812;4.622;2022-12-10T04:22:29;25.17;;;19.30;;
48241;SDS011;34041;51.812;4.622;2022-12-10T04:25:47;24.38;;;19.27;;
48241;SDS011;34041;51.812;4.622;2022-12-10T04:29:06;22.13;;;18.58;;
48241;SDS011;34041;51.812;4.622;2022-12-10T04:32:07;25.17;;;19.75;;
48241;SDS011;34041;51.812;4.622;2022-12-10T04:35:07;24.17;;;19.03;;
48241;SDS011;34041;51.812;4.622;2022-12-10T04:38:08;24.10;;;18.92;;
48241;SDS011;34041;51.812;4.622;2022-12-10T04:41:08;25.27;;;19.27;;
48241;SDS011;34041;51.812;4.622;2022-12-10T04:44:15;23.40;;;18.60;;
48241;SDS011;34041;51.812;4.622;2022-12-10T04:47:15;24.67;;;19.13;;
48241;SDS011;34041;51.812;4.622;2022-12-10T04:50:16;22.83;;;18.20;;
48241;SDS011;34041;51.812;4.622;2022-12-10T04:53:16;25.33;;;18.60;;
48241;SDS011;34041;51.812;4.622;2022-12-10T04:56:16;22.87;;;17.73;;
48241;SDS011;34041;51.812;4.622;2022-12-10T04:59:16;21.90;;;17.20;;
48241;SDS011;34041;51.812;4.622;2022-12-10T05:02:16;22.05;;;16.90;;
48241;SDS011;34041;51.812;4.622;2022-12-10T05:05:17;25.57;;;19.57;;
48241;SDS011;34041;51.812;4.622;2022-12-10T05:08:17;21.20;;;16.57;;
48241;SDS011;34041;51.812;4.622;2022-12-10T05:11:18;19.60;;;15.90;;
48241;SDS011;34041;51.812;4.622;2022-12-10T05:14:18;19.35;;;15.63;;
48241;SDS011;34041;51.812;4.622;2022-12-10T05:17:19;18.97;;;15.93;;
48241;SDS011;34041;51.812;4.622;2022-12-10T05:20:19;20.87;;;16.63;;
48241;SDS011;34041;51.812;4.622;2022-12-10T05:23:19;19.27;;;15.73;;
48241;SDS011;34041;51.812;4.622;2022-12-10T05:26:28;23.50;;;17.25;;
48241;SDS011;34041;51.812;4.622;2022-12-10T05:29:28;20.50;;;16.70;;
48241;SDS011;34041;51.812;4.622;2022-12-10T05:32:29;20.92;;;15.80;;
48241;SDS011;34041;51.812;4.622;2022-12-10T05:35:29;19.57;;;15.57;;
48241;SDS011;34041;51.812;4.622;2022-12-10T05:38:30;20.67;;;16.73;;
48241;SDS011;34041;51.812;4.622;2022-12-10T05:41:31;21.02;;;16.08;;
48241;SDS011;34041;51.812;4.622;2022-12-10T05:44:33;21.60;;;16.58;;
48241;SDS011;34041;51.812;4.622;2022-12-10T05:47:33;20.73;;;18.08;;
48241;SDS011;34041;51.812;4.622;2022-12-10T05:50:33;22.53;;;18.33;;
48241;SDS011;34041;51.812;4.622;2022-12-10T05:53:34;21.03;;;16.17;;
48241;SDS011;34041;51.812;4.622;2022-12-10T05:56:35;21.67;;;17.52;;
48241;SDS011;34041;51.812;4.622;2022-12-10T05:59:35;22.45;;;17.90;;
48241;SDS011;34041;51.812;4.622;2022-12-10T06:02:36;20.58;;;16.23;;
48241;SDS011;34041;51.812;4.622;2022-12-10T06:05:37;18.77;;;15.83;;
48241;SDS011;34041;51.812;4.622;2022-12-10T06:08:37;20.42;;;16.63;;
48241;SDS011;34041;51.812;4.622;2022-12-10T06:11:38;19.30;;;15.50;;
48241;SDS011;34041;51.812;4.622;2022-12-10T06:14:38;19.92;;;15.52;;
48241;SDS011;34041;51.812;4.622;2022-12-10T06:17:38;22.63;;;17.45;;
48241;SDS011;34041;51.812;4.622;2022-12-10T06:20:39;20.85;;;16.05;;
48241;SDS011;34041;51.812;4.622;2022-12-10T06:23:39;19.90;;;15.52;;
48241;SDS011;34041;51.812;4.622;2022-12-10T06:26:40;20.50;;;16.08;;
48241;SDS011;34041;51.812;4.622;2022-12-10T06:29:41;22.25;;;16.63;;
48241;SDS011;34041;51.812;4.622;2022-12-10T06:32:41;21.38;;;16.15;;
48241;SDS011;34041;51.812;4.622;2022-12-10T06:35:42;20.58;;;16.65;;
48241;SDS011;34041;51.812;4.622;2022-12-10T06:38:43;21.80;;;17.23;;
48241;SDS011;34041;51.812;4.622;2022-12-10T06:41:43;24.60;;;18.08;;
48241;SDS011;34041;51.812;4.622;2022-12-10T06:44:45;18.73;;;15.52;;
48241;SDS011;34041;51.812;4.622;2022-12-10T06:47:45;20.20;;;15.10;;
48241;SDS011;34041;51.812;4.622;2022-12-10T06:50:46;20.35;;;14.15;;
48241;SDS011;34041;51.812;4.622;2022-12-10T06:53:46;20.77;;;16.27;;
48241;SDS011;34041;51.812;4.622;2022-12-10T06:56:46;19.73;;;15.77;;
48241;SDS011;34041;51.812;4.622;2022-12-10T06:59:46;20.07;;;15.40;;
48241;SDS011;34041;51.812;4.622;2022-12-10T07:02:47;21.40;;;15.73;;
48241;SDS011;34041;51.812;4.622;2022-12-10T07:05:47;19.67;;;14.98;;
48241;SDS011;34041;51.812;4.622;2022-12-10T07:08:48;17.48;;;14.70;;
48241;SDS011;34041;51.812;4.622;2022-12-10T07:11:49;21.42;;;16.15;;
48241;SDS011;34041;51.812;4.622;2022-12-10T07:14:49;20.83;;;14.63;;
48241;SDS011;34041;51.812;4.622;2022-12-10T07:17:50;19.17;;;15.67;;
48241;SDS011;34041;51.812;4.622;2022-12-10T07:20:50;19.52;;;14.88;;
48241;SDS011;34041;51.812;4.622;2022-12-10T07:23:51;19.43;;;15.20;;
48241;SDS011;34041;51.812;4.622;2022-12-10T07:26:53;19.88;;;15.65;;
48241;SDS011;34041;51.812;4.622;2022-12-10T07:29:53;20.08;;;14.80;;
48241;SDS011;34041;51.812;4.622;2022-12-10T07:32:53;19.45;;;14.98;;
48241;SDS011;34041;51.812;4.622;2022-12-10T07:35:54;19.55;;;14.18;;
48241;SDS011;34041;51.812;4.622;2022-12-10T07:38:54;21.00;;;16.38;;
48241;SDS011;34041;51.812;4.622;2022-12-10T07:41:55;19.13;;;15.43;;
48241;SDS011;34041;51.812;4.622;2022-12-10T07:44:55;21.42;;;16.58;;
48241;SDS011;34041;51.812;4.622;2022-12-10T07:47:55;27.42;;;16.63;;
48241;SDS011;34041;51.812;4.622;2022-12-10T07:50:56;20.67;;;16.27;;
48241;SDS011;34041;51.812;4.622;2022-12-10T07:53:57;21.38;;;15.88;;
48241;SDS011;34041;51.812;4.622;2022-12-10T07:56:57;20.92;;;16.70;;
48241;SDS011;34041;51.812;4.622;2022-12-10T07:59:57;21.97;;;17.30;;
48241;SDS011;34041;51.812;4.622;2022-12-10T08:02:58;20.00;;;15.13;;
48241;SDS011;34041;51.812;4.622;2022-12-10T08:06:02;17.48;;;14.27;;
48241;SDS011;34041;51.812;4.622;2022-12-10T08:09:03;19.40;;;14.95;;
48241;SDS011;34041;51.812;4.622;2022-12-10T08:12:04;20.40;;;16.55;;
48241;SDS011;34041;51.812;4.622;2022-12-10T08:15:04;19.95;;;14.57;;
48241;SDS011;34041;51.812;4.622;2022-12-10T08:18:05;19.92;;;14.68;;
48241;SDS011;34041;51.812;4.622;2022-12-10T08:21:06;19.60;;;14.93;;
48241;SDS011;34041;51.812;4.622;2022-12-10T08:24:06;20.58;;;16.25;;
48241;SDS011;34041;51.812;4.622;2022-12-10T08:27:06;21.80;;;16.20;;
48241;SDS011;34041;51.812;4.622;2022-12-10T08:30:07;20.77;;;15.73;;
48241;SDS011;34041;51.812;4.622;2022-12-10T08:33:07;21.02;;;15.68;;
48241;SDS011;34041;51.812;4.622;2022-12-10T08:36:08;21.00;;;16.23;;
48241;SDS011;34041;51.812;4.622;2022-12-10T08:39:08;23.27;;;16.85;;
48241;SDS011;34041;51.812;4.622;2022-12-10T08:42:10;25.27;;;17.80;;
48241;SDS011;34041;51.812;4.622;2022-12-10T08:45:10;21.90;;;15.97;;
48241;SDS011;34041;51.812;4.622;2022-12-10T08:48:10;24.97;;;16.73;;
48241;SDS011;34041;51.812;4.622;2022-12-10T08:51:13;23.90;;;16.73;;
48241;SDS011;34041;51.812;4.622;2022-12-10T08:54:14;23.30;;;17.60;;
48241;SDS011;34041;51.812;4.622;2022-12-10T08:57:14;23.67;;;17.60;;
48241;SDS011;34041;51.812;4.622;2022-12-10T09:00:14;24.85;;;18.13;;
48241;SDS011;34041;51.812;4.622;2022-12-10T09:03:15;27.20;;;17.95;;
48241;SDS011;34041;51.812;4.622;2022-12-10T09:06:17;23.40;;;18.00;;
48241;SDS011;34041;51.812;4.622;2022-12-10T09:09:17;26.58;;;17.90;;
48241;SDS011;34041;51.812;4.622;2022-12-10T09:12:18;25.37;;;16.87;;
48241;SDS011;34041;51.812;4.622;2022-12-10T09:15:18;25.00;;;17.80;;
48241;SDS011;34041;51.812;4.622;2022-12-10T09:18:18;22.60;;;16.83;;
48241;SDS011;34041;51.812;4.622;2022-12-10T09:21:18;24.85;;;19.27;;
48241;SDS011;34041;51.812;4.622;2022-12-10T09:24:19;28.60;;;19.73;;
48241;SDS011;34041;51.812;4.622;2022-12-10T09:27:19;26.53;;;18.50;;
48241;SDS011;34041;51.812;4.622;2022-12-10T09:30:20;28.98;;;20.23;;
48241;SDS011;34041;51.812;4.622;2022-12-10T09:33:20;29.83;;;21.90;;
48241;SDS011;34041;51.812;4.622;2022-12-10T09:36:21;27.48;;;20.38;;
48241;SDS011;34041;51.812;4.622;2022-12-10T09:39:21;29.50;;;19.83;;
48241;SDS011;34041;51.812;4.622;2022-12-10T09:48:58;30.00;;;20.42;;
48241;SDS011;34041;51.812;4.622;2022-12-10T09:52:02;35.28;;;22.38;;
48241;SDS011;34041;51.812;4.622;2022-12-10T09:55:20;29.65;;;21.88;;
48241;SDS011;34041;51.812;4.622;2022-12-10T09:58:22;34.33;;;22.55;;
48241;SDS011;34041;51.812;4.622;2022-12-10T10:01:24;34.60;;;22.65;;
48241;SDS011;34041;51.812;4.622;2022-12-10T10:04:27;33.97;;;22.38;;
48241;SDS011;34041;51.812;4.622;2022-12-10T10:07:28;30.63;;;22.30;;
48241;SDS011;34041;51.812;4.622;2022-12-10T10:10:33;35.38;;;24.48;;
48241;SDS011;34041;51.812;4.622;2022-12-10T10:13:57;32.88;;;23.00;;
48241;SDS011;34041;51.812;4.622;2022-12-10T10:17:00;35.90;;;24.10;;
48241;SDS011;34041;51.812;4.622;2022-12-10T10:20:01;34.83;;;21.90;;
48241;SDS011;34041;51.812;4.622;2022-12-10T10:23:01;37.28;;;25.33;;
48241;SDS011;34041;51.812;4.622;2022-12-10T10:26:02;33.42;;;23.42;;
48241;SDS011;34041;51.812;4.622;2022-12-10T10:29:04;37.58;;;23.45;;
48241;SDS011;34041;51.812;4.622;2022-12-10T10:32:11;32.78;;;24.10;;
48241;SDS011;34041;51.812;4.622;2022-12-10T10:35:19;34.70;;;23.02;;
48241;SDS011;34041;51.812;4.622;2022-12-10T10:38:21;34.67;;;22.20;;
48241;SDS011;34041;51.812;4.622;2022-12-10T10:41:23;33.35;;;22.55;;
48241;SDS011;34041;51.812;4.622;2022-12-10T10:44:25;36.90;;;23.85;;
48241;SDS011;34041;51.812;4.622;2022-12-10T10:47:28;38.13;;;24.85;;
48241;SDS011;34041;51.812;4.622;2022-12-10T10:50:29;40.35;;;25.58;;
48241;SDS011;34041;51.812;4.622;2022-12-10T10:53:30;37.42;;;23.38;;
48241;SDS011;34041;51.812;4.622;2022-12-10T10:56:32;34.95;;;24.02;;
48241;SDS011;34041;51.812;4.622;2022-12-10T10:59:38;38.53;;;25.08;;
48241;SDS011;34041;51.812;4.622;2022-12-10T11:02:41;38.03;;;23.90;;
48241;SDS011;34041;51.812;4.622;2022-12-10T11:05:41;38.92;;;23.15;;
48241;SDS011;34041;51.812;4.622;2022-12-10T11:08:43;35.10;;;23.10;;
48241;SDS011;34041;51.812;4.622;2022-12-10T11:11:44;38.22;;;24.88;;
48241;SDS011;34041;51.812;4.622;2022-12-10T11:14:50;39.08;;;22.60;;
48241;SDS011;34041;51.812;4.622;2022-12-10T11:17:51;37.85;;;24.35;;
48241;SDS011;34041;51.812;4.622;2022-12-10T11:21:35;34.13;;;22.25;;
48241;SDS011;34041;51.812;4.622;2022-12-10T11:24:17;41.05;;;26.55;;
48241;SDS011;34041;51.812;4.622;2022-12-10T11:30:39;36.47;;;22.60;;
48241;SDS011;34041;51.812;4.622;2022-12-10T11:39:54;38.40;;;24.40;;
48241;SDS011;34041;51.812;4.622;2022-12-10T11:52:40;41.08;;;24.85;;
48241;SDS011;34041;51.812;4.622;2022-12-10T12:05:07;42.33;;;25.05;;
48241;SDS011;34041;51.812;4.622;2022-12-10T12:08:20;38.13;;;24.08;;
48241;SDS011;34041;51.812;4.622;2022-12-10T12:14:44;41.65;;;25.20;;
48241;SDS011;34041;51.812;4.622;2022-12-10T12:17:48;40.28;;;24.45;;
48241;SDS011;34041;51.812;4.622;2022-12-10T12:20:54;42.97;;;25.23;;
48241;SDS011;34041;51.812;4.622;2022-12-10T12:27:00;31.98;;;19.33;;
48241;SDS011;34041;51.812;4.622;2022-12-10T12:36:21;43.93;;;25.50;;
48241;SDS011;34041;51.812;4.622;2022-12-10T12:45:31;41.17;;;23.20;;
48241;SDS011;34041;51.812;4.622;2022-12-10T12:48:48;38.33;;;23.48;;
48241;SDS011;34041;51.812;4.622;2022-12-10T12:51:58;38.67;;;24.77;;
48241;SDS011;34041;51.812;4.622;2022-12-10T12:55:01;36.13;;;22.30;;
48241;SDS011;34041;51.812;4.622;2022-12-10T12:58:11;39.13;;;23.45;;
48241;SDS011;34041;51.812;4.622;2022-12-10T13:04:33;37.40;;;23.00;;
48241;SDS011;34041;51.812;4.622;2022-12-10T13:07:34;35.45;;;21.83;;
48241;SDS011;34041;51.812;4.622;2022-12-10T13:10:43;38.13;;;22.30;;
48241;SDS011;34041;51.812;4.622;2022-12-10T13:23:30;34.35;;;22.58;;
48241;SDS011;34041;51.812;4.622;2022-12-10T13:26:31;40.33;;;23.52;;
48241;SDS011;34041;51.812;4.622;2022-12-10T13:29:45;37.42;;;21.25;;
48241;SDS011;34041;51.812;4.622;2022-12-10T13:32:46;35.30;;;22.83;;
48241;SDS011;34041;51.812;4.622;2022-12-10T13:35:55;39.70;;;23.98;;
48241;SDS011;34041;51.812;4.622;2022-12-10T13:45:25;36.33;;;23.20;;
48241;SDS011;34041;51.812;4.622;2022-12-10T13:48:28;31.50;;;19.52;;
48241;SDS011;34041;51.812;4.622;2022-12-10T13:51:34;34.42;;;20.40;;
48241;SDS011;34041;51.812;4.622;2022-12-10T13:57:40;32.53;;;21.05;;
48241;SDS011;34041;51.812;4.622;2022-12-10T14:07:38;30.98;;;19.75;;
48241;SDS011;34041;51.812;4.622;2022-12-10T14:10:38;32.17;;;20.33;;
48241;SDS011;34041;51.812;4.622;2022-12-10T14:13:42;26.75;;;18.23;;
48241;SDS011;34041;51.812;4.622;2022-12-10T14:16:43;27.50;;;18.85;;
48241;SDS011;34041;51.812;4.622;2022-12-10T14:19:45;30.30;;;19.52;;
48241;SDS011;34041;51.812;4.622;2022-12-10T14:22:49;30.25;;;19.02;;
48241;SDS011;34041;51.812;4.622;2022-12-10T14:25:50;30.63;;;19.35;;
48241;SDS011;34041;51.812;4.622;2022-12-10T14:28:58;28.67;;;19.08;;
48241;SDS011;34041;51.812;4.622;2022-12-10T14:31:58;27.02;;;19.08;;
48241;SDS011;34041;51.812;4.622;2022-12-10T14:34:59;29.27;;;19.48;;
48241;SDS011;34041;51.812;4.622;2022-12-10T14:38:00;28.00;;;19.17;;
48241;SDS011;34041;51.812;4.622;2022-12-10T14:41:01;27.58;;;18.42;;
48241;SDS011;34041;51.812;4.622;2022-12-10T14:44:02;23.98;;;17.25;;
48241;SDS011;34041;51.812;4.622;2022-12-10T14:47:25;24.90;;;17.42;;
48241;SDS011;34041;51.812;4.622;2022-12-10T14:50:24;25.55;;;17.45;;
48241;SDS011;34041;51.812;4.622;2022-12-10T14:53:27;24.73;;;17.38;;
48241;SDS011;34041;51.812;4.622;2022-12-10T14:56:29;30.88;;;19.02;;
48241;SDS011;34041;51.812;4.622;2022-12-10T14:59:32;29.08;;;18.63;;
48241;SDS011;34041;51.812;4.622;2022-12-10T15:02:36;29.43;;;18.07;;
48241;SDS011;34041;51.812;4.622;2022-12-10T15:05:37;25.33;;;18.05;;
48241;SDS011;34041;51.812;4.622;2022-12-10T15:08:37;30.75;;;18.35;;
48241;SDS011;34041;51.812;4.622;2022-12-10T15:11:38;26.40;;;17.70;;
48241;SDS011;34041;51.812;4.622;2022-12-10T15:14:39;26.42;;;17.58;;
48241;SDS011;34041;51.812;4.622;2022-12-10T15:17:43;29.55;;;18.58;;
48241;SDS011;34041;51.812;4.622;2022-12-10T15:20:53;27.45;;;18.27;;
48241;SDS011;34041;51.812;4.622;2022-12-10T15:27:19;31.42;;;19.25;;
48241;SDS011;34041;51.812;4.622;2022-12-10T15:30:24;29.92;;;19.73;;
48241;SDS011;34041;51.812;4.622;2022-12-10T15:33:30;33.45;;;20.13;;
48241;SDS011;34041;51.812;4.622;2022-12-10T15:36:40;28.05;;;18.67;;
48241;SDS011;34041;51.812;4.622;2022-12-10T15:39:48;31.88;;;21.50;;
48241;SDS011;34041;51.812;4.622;2022-12-10T15:42:49;31.92;;;20.48;;
48241;SDS011;34041;51.812;4.622;2022-12-10T15:45:49;31.02;;;21.65;;
48241;SDS011;34041;51.812;4.622;2022-12-10T15:48:50;30.38;;;20.13;;
48241;SDS011;34041;51.812;4.622;2022-12-10T15:51:50;27.43;;;19.77;;
48241;SDS011;34041;51.812;4.622;2022-12-10T15:54:52;30.65;;;19.42;;
48241;SDS011;34041;51.812;4.622;2022-12-10T15:57:52;29.45;;;19.83;;
48241;SDS011;34041;51.812;4.622;2022-12-10T16:00:53;33.27;;;21.77;;
48241;SDS011;34041;51.812;4.622;2022-12-10T16:03:53;28.70;;;19.83;;
48241;SDS011;34041;51.812;4.622;2022-12-10T16:06:53;36.53;;;22.63;;
48241;SDS011;34041;51.812;4.622;2022-12-10T16:09:53;43.63;;;27.30;;
48241;SDS011;34041;51.812;4.622;2022-12-10T16:12:57;46.17;;;29.53;;
48241;SDS011;34041;51.812;4.622;2022-12-10T16:16:00;47.63;;;30.20;;
48241;SDS011;34041;51.812;4.622;2022-12-10T16:19:00;46.15;;;29.45;;
48241;SDS011;34041;51.812;4.622;2022-12-10T16:22:00;53.27;;;30.97;;
48241;SDS011;34041;51.812;4.622;2022-12-10T16:25:01;42.70;;;29.67;;
48241;SDS011;34041;51.812;4.622;2022-12-10T16:28:01;52.50;;;31.60;;
48241;SDS011;34041;51.812;4.622;2022-12-10T16:31:02;46.90;;;29.80;;
48241;SDS011;34041;51.812;4.622;2022-12-10T16:34:02;67.47;;;38.50;;
48241;SDS011;34041;51.812;4.622;2022-12-10T16:37:03;68.37;;;40.60;;
48241;SDS011;34041;51.812;4.622;2022-12-10T16:40:03;94.07;;;53.17;;
48241;SDS011;34041;51.812;4.622;2022-12-10T16:43:03;86.10;;;52.65;;
48241;SDS011;34041;51.812;4.622;2022-12-10T16:46:04;86.80;;;51.17;;
48241;SDS011;34041;51.812;4.622;2022-12-10T16:49:04;82.27;;;51.13;;
48241;SDS011;34041;51.812;4.622;2022-12-10T16:52:04;88.23;;;49.00;;
48241;SDS011;34041;51.812;4.622;2022-12-10T16:55:04;75.50;;;44.13;;
48241;SDS011;34041;51.812;4.622;2022-12-10T16:58:08;69.90;;;44.58;;
48241;SDS011;34041;51.812;4.622;2022-12-10T17:01:13;69.82;;;40.13;;
48241;SDS011;34041;51.812;4.622;2022-12-10T17:07:14;52.65;;;32.20;;
48241;SDS011;34041;51.812;4.622;2022-12-10T17:10:14;61.27;;;35.93;;
48241;SDS011;34041;51.812;4.622;2022-12-10T17:13:15;47.25;;;31.95;;
48241;SDS011;34041;51.812;4.622;2022-12-10T17:16:18;52.42;;;33.65;;
48241;SDS011;34041;51.812;4.622;2022-12-10T17:19:19;55.60;;;31.35;;
48241;SDS011;34041;51.812;4.622;2022-12-10T17:22:19;51.90;;;30.83;;
48241;SDS011;34041;51.812;4.622;2022-12-10T17:25:20;41.95;;;28.20;;
48241;SDS011;34041;51.812;4.622;2022-12-10T17:28:21;44.05;;;29.20;;
48241;SDS011;34041;51.812;4.622;2022-12-10T17:31:21;39.85;;;26.98;;
48241;SDS011;34041;51.812;4.622;2022-12-10T17:34:21;42.13;;;25.63;;
48241;SDS011;34041;51.812;4.622;2022-12-10T17:37:25;36.78;;;26.13;;
48241;SDS011;34041;51.812;4.622;2022-12-10T17:40:27;40.20;;;24.63;;
48241;SDS011;34041;51.812;4.622;2022-12-10T17:43:28;40.63;;;25.23;;
48241;SDS011;34041;51.812;4.622;2022-12-10T17:46:28;43.80;;;25.83;;
48241;SDS011;34041;51.812;4.622;2022-12-10T17:49:28;36.40;;;23.53;;
48241;SDS011;34041;51.812;4.622;2022-12-10T17:52:31;38.22;;;24.85;;
48241;SDS011;34041;51.812;4.622;2022-12-10T17:55:31;33.70;;;22.67;;
48241;SDS011;34041;51.812;4.622;2022-12-10T17:58:31;31.33;;;21.47;;
48241;SDS011;34041;51.812;4.622;2022-12-10T18:01:31;32.88;;;22.20;;
48241;SDS011;34041;51.812;4.622;2022-12-10T18:04:32;36.30;;;23.93;;
48241;SDS011;34041;51.812;4.622;2022-12-10T18:07:32;33.60;;;22.07;;
48241;SDS011;34041;51.812;4.622;2022-12-10T18:10:32;37.40;;;24.15;;
48241;SDS011;34041;51.812;4.622;2022-12-10T18:13:33;37.30;;;23.23;;
48241;SDS011;34041;51.812;4.622;2022-12-10T18:16:34;39.47;;;25.27;;
48241;SDS011;34041;51.812;4.622;2022-12-10T18:19:34;36.38;;;22.23;;
48241;SDS011;34041;51.812;4.622;2022-12-10T18:22:35;35.30;;;21.43;;
48241;SDS011;34041;51.812;4.622;2022-12-10T18:25:35;34.35;;;22.48;;
48241;SDS011;34041;51.812;4.622;2022-12-10T18:31:40;35.90;;;23.55;;
48241;SDS011;34041;51.812;4.622;2022-12-10T18:34:40;37.70;;;22.38;;
48241;SDS011;34041;51.812;4.622;2022-12-10T18:37:40;36.07;;;19.80;;
48241;SDS011;34041;51.812;4.622;2022-12-10T18:40:44;33.25;;;22.20;;
48241;SDS011;34041;51.812;4.622;2022-12-10T18:43:45;33.13;;;22.35;;
48241;SDS011;34041;51.812;4.622;2022-12-10T18:46:45;30.85;;;19.42;;
48241;SDS011;34041;51.812;4.622;2022-12-10T18:49:45;27.20;;;20.30;;
48241;SDS011;34041;51.812;4.622;2022-12-10T18:52:45;34.17;;;21.03;;
48241;SDS011;34041;51.812;4.622;2022-12-10T18:55:46;31.38;;;20.70;;
48241;SDS011;34041;51.812;4.622;2022-12-10T18:58:46;28.60;;;20.23;;
48241;SDS011;34041;51.812;4.622;2022-12-10T19:01:46;25.63;;;17.77;;
48241;SDS011;34041;51.812;4.622;2022-12-10T19:04:47;30.17;;;19.13;;
48241;SDS011;34041;51.812;4.622;2022-12-10T19:07:47;27.33;;;17.80;;
48241;SDS011;34041;51.812;4.622;2022-12-10T19:10:47;27.33;;;18.97;;
48241;SDS011;34041;51.812;4.622;2022-12-10T19:13:48;25.15;;;18.33;;
48241;SDS011;34041;51.812;4.622;2022-12-10T19:16:48;30.15;;;17.85;;
48241;SDS011;34041;51.812;4.622;2022-12-10T19:19:48;27.45;;;19.27;;
48241;SDS011;34041;51.812;4.622;2022-12-10T19:22:49;27.07;;;18.80;;
48241;SDS011;34041;51.812;4.622;2022-12-10T19:25:50;27.95;;;20.55;;
48241;SDS011;34041;51.812;4.622;2022-12-10T19:28:50;25.37;;;19.63;;
48241;SDS011;34041;51.812;4.622;2022-12-10T19:31:51;27.33;;;20.58;;
48241;SDS011;34041;51.812;4.622;2022-12-10T19:34:51;23.42;;;18.63;;